Terminal Aerodrome Forecast
Issued by NWS Sterling, VA

Home | Current Version | Previous Version | Text Only | Print | Product List | Glossary On
Versions: 1 2 3 4 5 6 7 8 9 10 11 12 13 14 15 16 17 18 19 20 21 22 23 24 25 26 27 28
437
FTUS41 KLWX 221733
TAFBWI
TAF
KBWI 221733Z 2218/2324 28012G23KT P6SM SCT080
     FM222200 28010KT P6SM FEW070 SCT080
     FM230000 29009KT P6SM FEW250
     FM230900 33005KT P6SM SKC
     FM231900 27005KT P6SM SKC
     FM232300 21004KT P6SM FEW200=

USA.gov is the U.S. government's official web portal to all federal, state and local government web resources and services.